Domov               UVHVVR             MKGP            O straneh              
ZDRAVSTVENO VARSTVO RASTLIN
  MREŽA AGROMET. POSTAJ
 ► PROGNOSTIČNA OBVESTILA
AGROMETEOROLOŠKI PODATKI -
ARSO
OBVLADOVANJE TVEGANJ ZARADI
NEUGODNIH VREMENSKIH RAZMER
  ► NARAVNE NESREČE
  ► SUŠA/MOČA
  ► NAMAKANJE
  ► ŽLED (gozdarstvo)
KARTOGRAFSKI PRIKAZI
SPLETNE POVEZAVE
PROJEKTI IN PUBLIKACIJE

AGROMETEOROLOŠKA MREŽA: VREMENSKE POSTAJE IN FENOLOŠKA OPAZOVANJA

Pregled podatkov za lokacijo Otočec, meteorološka postaja 37169

Pregled senzorjev na lokaciji

ID Ime Zadnja
vrednost
Datum
zadnje
spremembe
Tip
senzorja
3924 Relativna vlaga 2 m (% RH) 99,44 % RH 15.12.2017 20:00 50YA
3925 Temperatura 2 m (°C) 3,96 °C 15.12.2017 20:00 50YA
3926 Omočenost lista (U) 2 U 15.12.2017 20:00 A730WET
3927 Padavine (mm) 0,4 mm 15.12.2017 20:00 Rain-O-Matic

Pregled podatkov zadnjih 24 ur

Zap.
št.
Datum in čas Otočec
Omočenost
lista
Padavine Relativna
vlaga
2
m
Temperatura
2
m
0 15.12.2017 20:00 2,5 1 99,46 4,09
1 15.12.2017 19:30 3 1,4 99,49 4,49
2 15.12.2017 19:00 3 1,2 99,62 4,82
3 15.12.2017 18:30 3 0,8 99,93 5,38
4 15.12.2017 18:00 3 0,8 99,87 5,96
5 15.12.2017 17:30 6,5 3,2 98,02 6,65
6 15.12.2017 17:00 10 1 97,31 8,68
7 15.12.2017 16:30 10 0 95,68 9,11
8 15.12.2017 16:00 4,5 0,4 82,66 10,5
9 15.12.2017 15:30 0 0 78,07 11,15
10 15.12.2017 15:00 0 0 77,64 11,42
11 15.12.2017 14:30 5,5 0 82,61 11,38
12 15.12.2017 14:00 9 0 90,76 10,63
13 15.12.2017 13:30 8 0 89,96 10,67
14 15.12.2017 13:00 9,5 0,2 87,83 10,71
15 15.12.2017 12:30 9 0,4 85,74 11,05
16 15.12.2017 12:00 5 0 81,84 11,62
17 15.12.2017 11:30 4,5 0 83,93 11,32
18 15.12.2017 11:00 10 0 87,03 10,65
19 15.12.2017 10:30 10 0 87,73 10,23
20 15.12.2017 10:00 10 0 89,61 9,79
21 15.12.2017 09:30 10 0 91,54 9,34
22 15.12.2017 09:00 10 0,2 91,27 9,15
23 15.12.2017 08:30 10 0,2 89,43 9,21
24 15.12.2017 08:00 10 0 89,04 9,12
25 15.12.2017 07:30 10 0 86,06 9,5
26 15.12.2017 07:00 10 0,2 82,78 9,72
27 15.12.2017 06:30 10 0 83,08 9,47
28 15.12.2017 06:00 2 0 86,25 9,01
29 15.12.2017 05:30 6 0 89,04 8,82
30 15.12.2017 05:00 10 0 90,82 8,62
31 15.12.2017 04:30 10 0,2 90,48 8,52
32 15.12.2017 04:00 10 0,2 89,57 8,52
33 15.12.2017 03:30 8 0 91,04 8,18
34 15.12.2017 03:00 9 0 92,89 7,89
35 15.12.2017 02:30 10 0 93,87 7,84
36 15.12.2017 02:00 10 0 92,41 7,84
37 15.12.2017 01:30 10 0,2 96,39 6,96
38 15.12.2017 01:00 10 0 99,93 5,67
39 15.12.2017 00:30 10 0 99,93 5,05
40 15.12.2017 00:00 10 0 99,93 4,64
41 14.12.2017 23:30 10 0 99,93 4,76
42 14.12.2017 23:00 10 0 99,93 4,62
43 14.12.2017 22:30 10 0 99,83 4,84
44 14.12.2017 22:00 10 0 98,88 5,37
45 14.12.2017 21:30 10 0 99,56 5,86
46 14.12.2017 21:00 10 0 99,17 5,81
© 2011 Ministrstvo za kmetijstvo, gozdarstvo in prehrano. Vse pravice pridržane.